sensor_id;sensor_type;location;lat;lon;timestamp;P1;durP1;ratioP1;P2;durP2;ratioP2
32746;SDS011;19118;50.860;13.662;2023-07-31T00:02:10;9.13;;;2.17;;
32746;SDS011;19118;50.860;13.662;2023-07-31T00:07:11;7.43;;;1.47;;
32746;SDS011;19118;50.860;13.662;2023-07-31T00:12:11;12.90;;;2.28;;
32746;SDS011;19118;50.860;13.662;2023-07-31T00:17:11;16.20;;;2.20;;
32746;SDS011;19118;50.860;13.662;2023-07-31T00:22:12;5.03;;;1.63;;
32746;SDS011;19118;50.860;13.662;2023-07-31T00:27:12;11.33;;;2.03;;
32746;SDS011;19118;50.860;13.662;2023-07-31T00:32:12;5.45;;;1.77;;
32746;SDS011;19118;50.860;13.662;2023-07-31T00:37:13;5.10;;;1.60;;
32746;SDS011;19118;50.860;13.662;2023-07-31T00:42:15;6.03;;;1.70;;
32746;SDS011;19118;50.860;13.662;2023-07-31T00:47:15;9.57;;;1.83;;
32746;SDS011;19118;50.860;13.662;2023-07-31T00:52:16;6.57;;;1.95;;
32746;SDS011;19118;50.860;13.662;2023-07-31T00:57:17;4.57;;;1.50;;
32746;SDS011;19118;50.860;13.662;2023-07-31T01:02:18;8.48;;;1.65;;
32746;SDS011;19118;50.860;13.662;2023-07-31T01:12:35;5.68;;;1.58;;
32746;SDS011;19118;50.860;13.662;2023-07-31T01:17:38;5.07;;;1.83;;
32746;SDS011;19118;50.860;13.662;2023-07-31T01:22:47;5.97;;;1.40;;
32746;SDS011;19118;50.860;13.662;2023-07-31T01:27:59;5.72;;;1.58;;
32746;SDS011;19118;50.860;13.662;2023-07-31T01:33:04;9.57;;;2.60;;
32746;SDS011;19118;50.860;13.662;2023-07-31T01:38:08;5.82;;;1.83;;
32746;SDS011;19118;50.860;13.662;2023-07-31T01:43:08;5.13;;;2.25;;
32746;SDS011;19118;50.860;13.662;2023-07-31T01:48:08;4.25;;;1.52;;
32746;SDS011;19118;50.860;13.662;2023-07-31T01:53:09;11.55;;;1.90;;
32746;SDS011;19118;50.860;13.662;2023-07-31T01:58:09;7.15;;;2.15;;
32746;SDS011;19118;50.860;13.662;2023-07-31T02:03:10;8.27;;;1.98;;
32746;SDS011;19118;50.860;13.662;2023-07-31T02:08:10;10.70;;;1.90;;
32746;SDS011;19118;50.860;13.662;2023-07-31T02:13:11;5.68;;;1.52;;
32746;SDS011;19118;50.860;13.662;2023-07-31T02:18:11;7.25;;;1.83;;
32746;SDS011;19118;50.860;13.662;2023-07-31T02:23:11;5.47;;;1.60;;
32746;SDS011;19118;50.860;13.662;2023-07-31T02:28:12;8.27;;;2.40;;
32746;SDS011;19118;50.860;13.662;2023-07-31T02:33:12;7.47;;;1.52;;
32746;SDS011;19118;50.860;13.662;2023-07-31T02:38:14;9.30;;;1.98;;
32746;SDS011;19118;50.860;13.662;2023-07-31T02:43:15;10.07;;;1.77;;
32746;SDS011;19118;50.860;13.662;2023-07-31T02:48:16;8.88;;;2.03;;
32746;SDS011;19118;50.860;13.662;2023-07-31T02:53:16;6.30;;;1.70;;
32746;SDS011;19118;50.860;13.662;2023-07-31T02:58:16;12.38;;;2.28;;
32746;SDS011;19118;50.860;13.662;2023-07-31T03:03:17;8.73;;;1.73;;
32746;SDS011;19118;50.860;13.662;2023-07-31T03:08:17;5.53;;;1.70;;
32746;SDS011;19118;50.860;13.662;2023-07-31T03:13:18;4.45;;;1.70;;
32746;SDS011;19118;50.860;13.662;2023-07-31T03:18:18;5.80;;;1.52;;
32746;SDS011;19118;50.860;13.662;2023-07-31T03:23:19;6.05;;;2.03;;
32746;SDS011;19118;50.860;13.662;2023-07-31T03:28:19;5.93;;;1.42;;
32746;SDS011;19118;50.860;13.662;2023-07-31T03:33:19;5.07;;;1.27;;
32746;SDS011;19118;50.860;13.662;2023-07-31T03:38:20;11.02;;;2.78;;
32746;SDS011;19118;50.860;13.662;2023-07-31T03:43:20;5.45;;;2.20;;
32746;SDS011;19118;50.860;13.662;2023-07-31T03:48:21;6.97;;;2.40;;
32746;SDS011;19118;50.860;13.662;2023-07-31T03:53:21;7.47;;;1.95;;
32746;SDS011;19118;50.860;13.662;2023-07-31T03:58:21;12.07;;;2.20;;
32746;SDS011;19118;50.860;13.662;2023-07-31T04:03:22;6.70;;;2.20;;
32746;SDS011;19118;50.860;13.662;2023-07-31T04:08:22;13.77;;;2.60;;
32746;SDS011;19118;50.860;13.662;2023-07-31T04:13:23;7.38;;;2.53;;
32746;SDS011;19118;50.860;13.662;2023-07-31T04:18:24;9.13;;;2.75;;
32746;SDS011;19118;50.860;13.662;2023-07-31T04:23:26;9.77;;;2.55;;
32746;SDS011;19118;50.860;13.662;2023-07-31T04:28:26;5.95;;;2.45;;
32746;SDS011;19118;50.860;13.662;2023-07-31T04:33:26;10.43;;;3.22;;
32746;SDS011;19118;50.860;13.662;2023-07-31T04:38:27;7.55;;;2.40;;
32746;SDS011;19118;50.860;13.662;2023-07-31T04:43:27;11.00;;;3.00;;
32746;SDS011;19118;50.860;13.662;2023-07-31T04:48:28;9.38;;;2.30;;
32746;SDS011;19118;50.860;13.662;2023-07-31T04:53:28;8.15;;;2.38;;
32746;SDS011;19118;50.860;13.662;2023-07-31T04:58:28;10.17;;;2.33;;
32746;SDS011;19118;50.860;13.662;2023-07-31T05:03:29;7.80;;;2.93;;
32746;SDS011;19118;50.860;13.662;2023-07-31T05:08:29;5.85;;;2.15;;
32746;SDS011;19118;50.860;13.662;2023-07-31T05:13:29;7.50;;;2.33;;
32746;SDS011;19118;50.860;13.662;2023-07-31T05:18:30;6.77;;;2.20;;
32746;SDS011;19118;50.860;13.662;2023-07-31T05:23:30;3.70;;;2.10;;
32746;SDS011;19118;50.860;13.662;2023-07-31T05:28:34;8.70;;;2.15;;
32746;SDS011;19118;50.860;13.662;2023-07-31T05:33:35;6.85;;;2.05;;
32746;SDS011;19118;50.860;13.662;2023-07-31T05:38:36;6.78;;;2.25;;
32746;SDS011;19118;50.860;13.662;2023-07-31T05:43:36;16.90;;;2.38;;
32746;SDS011;19118;50.860;13.662;2023-07-31T05:48:37;10.70;;;2.45;;
32746;SDS011;19118;50.860;13.662;2023-07-31T05:53:37;8.63;;;2.22;;
32746;SDS011;19118;50.860;13.662;2023-07-31T05:58:40;10.00;;;2.58;;
32746;SDS011;19118;50.860;13.662;2023-07-31T06:03:41;5.73;;;1.87;;
32746;SDS011;19118;50.860;13.662;2023-07-31T06:08:41;11.05;;;2.72;;
32746;SDS011;19118;50.860;13.662;2023-07-31T06:13:41;13.52;;;4.60;;
32746;SDS011;19118;50.860;13.662;2023-07-31T06:18:44;5.65;;;1.98;;
32746;SDS011;19118;50.860;13.662;2023-07-31T06:23:45;7.30;;;2.35;;
32746;SDS011;19118;50.860;13.662;2023-07-31T06:28:45;8.27;;;2.73;;
32746;SDS011;19118;50.860;13.662;2023-07-31T06:33:45;10.88;;;2.35;;
32746;SDS011;19118;50.860;13.662;2023-07-31T06:38:46;10.37;;;2.57;;
32746;SDS011;19118;50.860;13.662;2023-07-31T06:43:46;9.93;;;2.60;;
32746;SDS011;19118;50.860;13.662;2023-07-31T06:48:46;7.30;;;2.27;;
32746;SDS011;19118;50.860;13.662;2023-07-31T06:53:47;7.87;;;2.20;;
32746;SDS011;19118;50.860;13.662;2023-07-31T06:58:47;14.48;;;2.53;;
32746;SDS011;19118;50.860;13.662;2023-07-31T07:03:47;7.27;;;2.80;;
32746;SDS011;19118;50.860;13.662;2023-07-31T07:08:50;9.43;;;2.80;;
32746;SDS011;19118;50.860;13.662;2023-07-31T07:13:51;9.27;;;2.50;;
32746;SDS011;19118;50.860;13.662;2023-07-31T07:18:51;10.55;;;2.67;;
32746;SDS011;19118;50.860;13.662;2023-07-31T07:23:52;9.75;;;2.97;;
32746;SDS011;19118;50.860;13.662;2023-07-31T07:28:52;9.60;;;2.10;;
32746;SDS011;19118;50.860;13.662;2023-07-31T07:33:52;7.60;;;2.17;;
32746;SDS011;19118;50.860;13.662;2023-07-31T07:38:53;5.65;;;2.03;;
32746;SDS011;19118;50.860;13.662;2023-07-31T07:43:53;6.00;;;2.67;;
32746;SDS011;19118;50.860;13.662;2023-07-31T07:48:53;5.23;;;2.20;;
32746;SDS011;19118;50.860;13.662;2023-07-31T07:53:54;9.17;;;2.40;;
32746;SDS011;19118;50.860;13.662;2023-07-31T07:58:54;6.67;;;2.50;;
32746;SDS011;19118;50.860;13.662;2023-07-31T08:03:55;7.22;;;2.45;;
32746;SDS011;19118;50.860;13.662;2023-07-31T08:08:55;9.57;;;2.73;;
32746;SDS011;19118;50.860;13.662;2023-07-31T08:13:56;7.45;;;2.60;;
32746;SDS011;19118;50.860;13.662;2023-07-31T08:18:56;13.52;;;2.95;;
32746;SDS011;19118;50.860;13.662;2023-07-31T08:23:56;6.00;;;2.33;;
32746;SDS011;19118;50.860;13.662;2023-07-31T08:28:57;3.55;;;2.08;;
32746;SDS011;19118;50.860;13.662;2023-07-31T08:33:57;4.78;;;2.22;;
32746;SDS011;19118;50.860;13.662;2023-07-31T08:38:58;5.70;;;2.38;;
32746;SDS011;19118;50.860;13.662;2023-07-31T08:43:58;11.23;;;3.30;;
32746;SDS011;19118;50.860;13.662;2023-07-31T08:49:00;6.05;;;2.38;;
32746;SDS011;19118;50.860;13.662;2023-07-31T08:54:04;9.93;;;3.10;;
32746;SDS011;19118;50.860;13.662;2023-07-31T08:59:04;5.75;;;2.38;;
32746;SDS011;19118;50.860;13.662;2023-07-31T09:04:05;9.05;;;2.50;;
32746;SDS011;19118;50.860;13.662;2023-07-31T09:09:09;5.35;;;2.25;;
32746;SDS011;19118;50.860;13.662;2023-07-31T09:14:09;11.07;;;2.53;;
32746;SDS011;19118;50.860;13.662;2023-07-31T09:19:10;8.25;;;2.58;;
32746;SDS011;19118;50.860;13.662;2023-07-31T09:24:11;4.35;;;2.20;;
32746;SDS011;19118;50.860;13.662;2023-07-31T09:29:25;5.57;;;2.17;;
32746;SDS011;19118;50.860;13.662;2023-07-31T09:34:36;11.45;;;2.33;;
32746;SDS011;19118;50.860;13.662;2023-07-31T09:39:45;5.28;;;2.97;;
32746;SDS011;19118;50.860;13.662;2023-07-31T09:44:47;6.43;;;2.80;;
32746;SDS011;19118;50.860;13.662;2023-07-31T09:49:47;7.93;;;2.27;;
32746;SDS011;19118;50.860;13.662;2023-07-31T09:54:47;8.03;;;2.30;;
32746;SDS011;19118;50.860;13.662;2023-07-31T09:59:48;12.70;;;2.60;;
32746;SDS011;19118;50.860;13.662;2023-07-31T10:04:49;8.43;;;2.53;;
32746;SDS011;19118;50.860;13.662;2023-07-31T10:09:51;5.38;;;2.42;;
32746;SDS011;19118;50.860;13.662;2023-07-31T10:14:56;6.88;;;2.63;;
32746;SDS011;19118;50.860;13.662;2023-07-31T10:19:57;5.05;;;2.05;;
32746;SDS011;19118;50.860;13.662;2023-07-31T10:25:01;6.35;;;2.33;;
32746;SDS011;19118;50.860;13.662;2023-07-31T10:30:02;7.05;;;2.15;;
32746;SDS011;19118;50.860;13.662;2023-07-31T10:35:05;4.90;;;1.90;;
32746;SDS011;19118;50.860;13.662;2023-07-31T10:40:11;4.18;;;2.17;;
32746;SDS011;19118;50.860;13.662;2023-07-31T10:45:33;6.10;;;2.30;;
32746;SDS011;19118;50.860;13.662;2023-07-31T10:50:37;3.00;;;1.90;;
32746;SDS011;19118;50.860;13.662;2023-07-31T10:55:42;2.03;;;1.25;;
32746;SDS011;19118;50.860;13.662;2023-07-31T11:00:48;2.50;;;1.42;;
32746;SDS011;19118;50.860;13.662;2023-07-31T11:05:49;2.80;;;1.63;;
32746;SDS011;19118;50.860;13.662;2023-07-31T11:16:02;3.65;;;1.88;;
32746;SDS011;19118;50.860;13.662;2023-07-31T11:21:03;2.75;;;1.67;;
32746;SDS011;19118;50.860;13.662;2023-07-31T11:26:04;8.57;;;2.33;;
32746;SDS011;19118;50.860;13.662;2023-07-31T11:31:05;8.48;;;1.52;;
32746;SDS011;19118;50.860;13.662;2023-07-31T11:36:18;2.58;;;1.67;;
32746;SDS011;19118;50.860;13.662;2023-07-31T11:41:19;2.53;;;1.30;;
32746;SDS011;19118;50.860;13.662;2023-07-31T11:46:20;8.03;;;1.70;;
32746;SDS011;19118;50.860;13.662;2023-07-31T11:51:20;5.50;;;1.40;;
32746;SDS011;19118;50.860;13.662;2023-07-31T11:56:21;2.70;;;1.35;;
32746;SDS011;19118;50.860;13.662;2023-07-31T12:01:23;4.43;;;1.75;;
32746;SDS011;19118;50.860;13.662;2023-07-31T12:06:37;3.35;;;1.25;;
32746;SDS011;19118;50.860;13.662;2023-07-31T12:11:44;4.30;;;1.10;;
32746;SDS011;19118;50.860;13.662;2023-07-31T12:16:47;3.83;;;1.38;;
32746;SDS011;19118;50.860;13.662;2023-07-31T12:21:52;3.00;;;1.90;;
32746;SDS011;19118;50.860;13.662;2023-07-31T12:26:53;5.20;;;2.03;;
32746;SDS011;19118;50.860;13.662;2023-07-31T12:31:54;6.20;;;1.98;;
32746;SDS011;19118;50.860;13.662;2023-07-31T12:36:55;2.78;;;1.67;;
32746;SDS011;19118;50.860;13.662;2023-07-31T12:41:55;7.63;;;1.40;;
32746;SDS011;19118;50.860;13.662;2023-07-31T12:46:56;7.83;;;1.73;;
32746;SDS011;19118;50.860;13.662;2023-07-31T12:51:56;5.72;;;2.17;;
32746;SDS011;19118;50.860;13.662;2023-07-31T12:56:56;3.67;;;1.90;;
32746;SDS011;19118;50.860;13.662;2023-07-31T13:01:57;8.93;;;2.50;;
32746;SDS011;19118;50.860;13.662;2023-07-31T13:06:57;5.43;;;2.10;;
32746;SDS011;19118;50.860;13.662;2023-07-31T13:11:58;7.43;;;2.08;;
32746;SDS011;19118;50.860;13.662;2023-07-31T13:16:58;7.50;;;1.93;;
32746;SDS011;19118;50.860;13.662;2023-07-31T13:21:59;5.95;;;2.17;;
32746;SDS011;19118;50.860;13.662;2023-07-31T13:26:59;5.15;;;2.45;;
32746;SDS011;19118;50.860;13.662;2023-07-31T13:31:59;4.47;;;2.10;;
32746;SDS011;19118;50.860;13.662;2023-07-31T13:37:00;3.40;;;2.13;;
32746;SDS011;19118;50.860;13.662;2023-07-31T13:42:00;4.00;;;1.90;;
32746;SDS011;19118;50.860;13.662;2023-07-31T13:47:02;4.10;;;2.10;;
32746;SDS011;19118;50.860;13.662;2023-07-31T13:52:02;6.28;;;2.20;;
32746;SDS011;19118;50.860;13.662;2023-07-31T13:57:03;7.80;;;2.30;;
32746;SDS011;19118;50.860;13.662;2023-07-31T14:02:04;9.20;;;2.20;;
32746;SDS011;19118;50.860;13.662;2023-07-31T14:07:04;15.30;;;2.33;;
32746;SDS011;19118;50.860;13.662;2023-07-31T14:12:05;20.88;;;2.78;;
32746;SDS011;19118;50.860;13.662;2023-07-31T14:17:05;5.20;;;2.17;;
32746;SDS011;19118;50.860;13.662;2023-07-31T14:22:06;4.30;;;2.37;;
32746;SDS011;19118;50.860;13.662;2023-07-31T14:27:06;6.77;;;2.40;;
32746;SDS011;19118;50.860;13.662;2023-07-31T14:32:07;6.78;;;2.28;;
32746;SDS011;19118;50.860;13.662;2023-07-31T14:37:07;5.85;;;2.20;;
32746;SDS011;19118;50.860;13.662;2023-07-31T14:42:08;3.03;;;1.90;;
32746;SDS011;19118;50.860;13.662;2023-07-31T14:47:09;4.57;;;2.10;;
32746;SDS011;19118;50.860;13.662;2023-07-31T14:52:09;3.80;;;1.77;;
32746;SDS011;19118;50.860;13.662;2023-07-31T14:57:09;3.00;;;2.22;;
32746;SDS011;19118;50.860;13.662;2023-07-31T15:02:10;6.03;;;2.60;;
32746;SDS011;19118;50.860;13.662;2023-07-31T15:07:10;4.68;;;2.33;;
32746;SDS011;19118;50.860;13.662;2023-07-31T15:12:11;8.00;;;2.60;;
32746;SDS011;19118;50.860;13.662;2023-07-31T15:17:11;9.53;;;2.73;;
32746;SDS011;19118;50.860;13.662;2023-07-31T15:22:12;8.57;;;2.50;;
32746;SDS011;19118;50.860;13.662;2023-07-31T15:27:12;5.85;;;2.33;;
32746;SDS011;19118;50.860;13.662;2023-07-31T15:32:12;7.73;;;2.33;;
32746;SDS011;19118;50.860;13.662;2023-07-31T15:37:13;6.97;;;2.53;;
32746;SDS011;19118;50.860;13.662;2023-07-31T15:42:13;4.97;;;2.60;;
32746;SDS011;19118;50.860;13.662;2023-07-31T15:47:14;7.60;;;2.30;;
32746;SDS011;19118;50.860;13.662;2023-07-31T15:52:14;3.45;;;2.30;;
32746;SDS011;19118;50.860;13.662;2023-07-31T15:57:14;7.53;;;2.72;;
32746;SDS011;19118;50.860;13.662;2023-07-31T16:02:15;6.72;;;2.20;;
32746;SDS011;19118;50.860;13.662;2023-07-31T16:07:15;3.87;;;2.10;;
32746;SDS011;19118;50.860;13.662;2023-07-31T16:12:15;5.37;;;2.23;;
32746;SDS011;19118;50.860;13.662;2023-07-31T16:17:16;6.40;;;2.47;;
32746;SDS011;19118;50.860;13.662;2023-07-31T16:22:16;5.63;;;2.73;;
32746;SDS011;19118;50.860;13.662;2023-07-31T16:27:16;5.83;;;2.60;;
32746;SDS011;19118;50.860;13.662;2023-07-31T16:32:19;4.55;;;2.50;;
32746;SDS011;19118;50.860;13.662;2023-07-31T16:37:19;3.45;;;2.25;;
32746;SDS011;19118;50.860;13.662;2023-07-31T16:42:20;7.90;;;3.08;;
32746;SDS011;19118;50.860;13.662;2023-07-31T16:47:21;6.43;;;2.17;;
32746;SDS011;19118;50.860;13.662;2023-07-31T16:52:21;4.07;;;2.47;;
32746;SDS011;19118;50.860;13.662;2023-07-31T16:57:22;6.30;;;2.87;;
32746;SDS011;19118;50.860;13.662;2023-07-31T17:02:24;6.35;;;2.53;;
32746;SDS011;19118;50.860;13.662;2023-07-31T17:07:24;6.00;;;3.00;;
32746;SDS011;19118;50.860;13.662;2023-07-31T17:12:25;6.50;;;2.40;;
32746;SDS011;19118;50.860;13.662;2023-07-31T17:17:25;5.27;;;2.73;;
32746;SDS011;19118;50.860;13.662;2023-07-31T17:22:25;5.73;;;2.47;;
32746;SDS011;19118;50.860;13.662;2023-07-31T17:27:26;9.35;;;2.67;;
32746;SDS011;19118;50.860;13.662;2023-07-31T17:32:27;6.50;;;2.63;;
32746;SDS011;19118;50.860;13.662;2023-07-31T17:37:27;8.43;;;2.80;;
32746;SDS011;19118;50.860;13.662;2023-07-31T17:42:28;5.93;;;3.22;;
32746;SDS011;19118;50.860;13.662;2023-07-31T17:47:28;10.43;;;3.40;;
32746;SDS011;19118;50.860;13.662;2023-07-31T17:52:29;7.83;;;2.60;;
32746;SDS011;19118;50.860;13.662;2023-07-31T17:57:29;6.55;;;2.85;;
32746;SDS011;19118;50.860;13.662;2023-07-31T18:02:29;8.30;;;2.92;;
32746;SDS011;19118;50.860;13.662;2023-07-31T18:07:30;5.93;;;2.65;;
32746;SDS011;19118;50.860;13.662;2023-07-31T18:12:31;17.92;;;3.45;;
32746;SDS011;19118;50.860;13.662;2023-07-31T18:17:31;8.00;;;2.93;;
32746;SDS011;19118;50.860;13.662;2023-07-31T18:22:31;9.50;;;3.70;;
32746;SDS011;19118;50.860;13.662;2023-07-31T18:27:32;14.40;;;3.70;;
32746;SDS011;19118;50.860;13.662;2023-07-31T18:32:32;6.95;;;2.35;;
32746;SDS011;19118;50.860;13.662;2023-07-31T18:37:32;5.27;;;2.43;;
32746;SDS011;19118;50.860;13.662;2023-07-31T18:42:33;9.60;;;3.43;;
32746;SDS011;19118;50.860;13.662;2023-07-31T18:47:33;13.30;;;3.40;;
32746;SDS011;19118;50.860;13.662;2023-07-31T18:52:33;7.93;;;2.83;;
32746;SDS011;19118;50.860;13.662;2023-07-31T18:57:34;8.97;;;3.33;;
32746;SDS011;19118;50.860;13.662;2023-07-31T19:02:34;6.80;;;3.17;;
32746;SDS011;19118;50.860;13.662;2023-07-31T19:07:34;7.30;;;2.60;;
32746;SDS011;19118;50.860;13.662;2023-07-31T19:12:35;9.20;;;3.30;;
32746;SDS011;19118;50.860;13.662;2023-07-31T19:17:37;9.43;;;2.75;;
32746;SDS011;19118;50.860;13.662;2023-07-31T19:22:38;5.25;;;3.33;;
32746;SDS011;19118;50.860;13.662;2023-07-31T19:27:38;7.78;;;3.10;;
32746;SDS011;19118;50.860;13.662;2023-07-31T19:32:39;4.93;;;2.73;;
32746;SDS011;19118;50.860;13.662;2023-07-31T19:37:39;6.87;;;2.50;;
32746;SDS011;19118;50.860;13.662;2023-07-31T19:42:39;6.97;;;3.17;;
32746;SDS011;19118;50.860;13.662;2023-07-31T19:47:40;9.07;;;3.50;;
32746;SDS011;19118;50.860;13.662;2023-07-31T19:52:40;6.88;;;3.08;;
32746;SDS011;19118;50.860;13.662;2023-07-31T19:57:41;12.80;;;3.75;;
32746;SDS011;19118;50.860;13.662;2023-07-31T20:02:42;14.47;;;4.13;;
32746;SDS011;19118;50.860;13.662;2023-07-31T20:07:43;7.75;;;3.15;;
32746;SDS011;19118;50.860;13.662;2023-07-31T20:12:43;7.90;;;3.23;;
32746;SDS011;19118;50.860;13.662;2023-07-31T20:17:43;8.13;;;3.47;;
32746;SDS011;19118;50.860;13.662;2023-07-31T20:22:44;11.27;;;3.73;;
32746;SDS011;19118;50.860;13.662;2023-07-31T20:27:44;12.10;;;3.63;;
32746;SDS011;19118;50.860;13.662;2023-07-31T20:32:45;8.53;;;3.17;;
32746;SDS011;19118;50.860;13.662;2023-07-31T20:37:45;6.77;;;3.17;;
32746;SDS011;19118;50.860;13.662;2023-07-31T20:42:54;13.97;;;4.93;;
32746;SDS011;19118;50.860;13.662;2023-07-31T20:47:58;8.77;;;3.17;;
32746;SDS011;19118;50.860;13.662;2023-07-31T20:53:01;6.35;;;3.00;;
32746;SDS011;19118;50.860;13.662;2023-07-31T20:58:03;10.43;;;3.17;;
32746;SDS011;19118;50.860;13.662;2023-07-31T21:03:04;8.75;;;3.50;;
32746;SDS011;19118;50.860;13.662;2023-07-31T21:08:04;9.17;;;3.00;;
32746;SDS011;19118;50.860;13.662;2023-07-31T21:13:05;6.35;;;2.85;;
32746;SDS011;19118;50.860;13.662;2023-07-31T21:18:05;9.93;;;3.57;;
32746;SDS011;19118;50.860;13.662;2023-07-31T21:23:05;9.67;;;3.47;;
32746;SDS011;19118;50.860;13.662;2023-07-31T21:28:08;11.00;;;3.92;;
32746;SDS011;19118;50.860;13.662;2023-07-31T21:33:10;6.72;;;3.33;;
32746;SDS011;19118;50.860;13.662;2023-07-31T21:38:11;9.00;;;3.37;;
32746;SDS011;19118;50.860;13.662;2023-07-31T21:43:13;8.43;;;3.42;;
32746;SDS011;19118;50.860;13.662;2023-07-31T21:48:14;9.27;;;3.10;;
32746;SDS011;19118;50.860;13.662;2023-07-31T21:53:14;9.20;;;3.37;;
32746;SDS011;19118;50.860;13.662;2023-07-31T21:58:14;12.73;;;3.67;;
32746;SDS011;19118;50.860;13.662;2023-07-31T22:03:15;9.90;;;3.27;;
32746;SDS011;19118;50.860;13.662;2023-07-31T22:08:15;10.93;;;3.70;;
32746;SDS011;19118;50.860;13.662;2023-07-31T22:13:15;5.50;;;2.80;;
32746;SDS011;19118;50.860;13.662;2023-07-31T22:18:16;10.02;;;3.25;;
32746;SDS011;19118;50.860;13.662;2023-07-31T22:23:16;10.50;;;3.10;;
32746;SDS011;19118;50.860;13.662;2023-07-31T22:28:16;7.53;;;3.47;;
32746;SDS011;19118;50.860;13.662;2023-07-31T22:33:17;7.07;;;3.47;;
32746;SDS011;19118;50.860;13.662;2023-07-31T22:38:17;9.93;;;3.40;;
32746;SDS011;19118;50.860;13.662;2023-07-31T22:43:17;11.07;;;3.43;;
32746;SDS011;19118;50.860;13.662;2023-07-31T22:48:18;9.13;;;3.00;;
32746;SDS011;19118;50.860;13.662;2023-07-31T22:53:18;7.97;;;2.47;;
32746;SDS011;19118;50.860;13.662;2023-07-31T22:58:18;9.98;;;3.35;;
32746;SDS011;19118;50.860;13.662;2023-07-31T23:03:20;9.90;;;3.15;;
32746;SDS011;19118;50.860;13.662;2023-07-31T23:08:20;7.17;;;3.40;;
32746;SDS011;19118;50.860;13.662;2023-07-31T23:13:21;15.15;;;3.88;;
32746;SDS011;19118;50.860;13.662;2023-07-31T23:18:21;12.15;;;2.88;;
32746;SDS011;19118;50.860;13.662;2023-07-31T23:23:22;6.05;;;3.03;;
32746;SDS011;19118;50.860;13.662;2023-07-31T23:28:24;7.03;;;2.90;;
32746;SDS011;19118;50.860;13.662;2023-07-31T23:33:24;10.10;;;3.47;;
32746;SDS011;19118;50.860;13.662;2023-07-31T23:38:24;7.00;;;3.10;;
32746;SDS011;19118;50.860;13.662;2023-07-31T23:43:25;11.18;;;3.35;;
32746;SDS011;19118;50.860;13.662;2023-07-31T23:48:25;10.43;;;3.20;;
32746;SDS011;19118;50.860;13.662;2023-07-31T23:53:26;6.20;;;3.30;;
32746;SDS011;19118;50.860;13.662;2023-07-31T23:58:27;6.80;;;3.45;;
